MMGL/GDL METAR and TAF weather

Enter ICAO airport designator
Station Type Date Time Source
MMGL METAR 2022/06/28 13:42 UTC NOAA

MMGL 281342Z 00000KT 4SM FEW009 OVC080 17/15 A3029 RMK 8/57/ LWR ST SC 3/4 QUAD HZY


Station Type Date Time Source
MMGL Decoded METAR 2022/06/28 13:42 UTC NOAA

Don Miguel / Guadalaj, Mexico (MMGL) 20-31N 103-19W
Jun 28, 2022 - 09:42 AM EDT / 2022.06.28 1342 UTC
Wind: Calm:0
Visibility: 4 mile(s):0
Sky conditions: overcast
Temperature: 62 F (17 C)
Dew Point: 59 F (15 C)
Relative Humidity: 88%
Pressure (altimeter): 30.29 in. Hg (1025 hPa)
ob: MMGL 281342Z 00000KT 4SM FEW009 OVC080 17/15 A3029 RMK 8/57/ LWR ST SC 3/4 QUAD HZY
cycle: 13

Station Type Date Time Source
MMGL TAF 2022/06/28 12:59 UTC NOAA

TAF MMGL 281052Z 2812/2918 09005KT 6SM SCT020 BKN080 BKN300 TX30/2821Z TN16/2812Z
TEMPO 2812/2815 6SM RA BKN020
FM281800 13010KT P6SM SCT020 BKN300
TEMPO 2823/2903 5SM TSRA BKN020CB
FM290400 13005KT 6SM HZ SCT020 BKN080 BKN300
TEMPO 2906/2910 6SM TSRA BKN020CB
FM291400 09005KT 6SM HZ SCT020 SCT080 BKN300

Example: see airport list